Startpagina
METAR-TAF:

METAR-TAF

Vliegvelden :

Luchthaven Garoua Internationaal

Garoua, Kameroen

breedte: 09-20N, lengte: 013-23E, hoogte: 242 m

Actueel weer

Dit bericht is 6 uur en het 18 minuten geleden gemaakt, om 23:00 UTC
Wind 6 kt uit het westen
Temperatuur 24°C
Vochtigheid 89%
Druk 1015 hPa
Zicht 10 km of meer
Weinig wolken op 1000 ft

METAR: FKKR 252300Z 28006KT 9999 FEW010 24/22 Q1015 NOSIG

Tijdstip: 06:18 (05:18 UTC)

Verwachting

Dit bericht is 18 uur en het 18 minuten geleden gemaakt, om 11:00 UTC
Verwachting geldig van 25 om 12 UTC tot 25 om 24 UTC
Wind 8 kt uit het westen
Zicht 10 km of meer
Verspreide wolken op 1600 ft
Kans 30%
van 25 om 16 UTC tot 25 om 18 UTC
Gebroken wolken op 1600 ft
Weinig wolken op 2000 ft, Cumulonimbus.
onweer

TAF: FKKR 251100Z 2512/2524 26008KT 9999 SCT016 PROB30 2516/2518 TS BKN016 FEW020CB

Waarnemingen en weersverwachtingen van meer dan 4000 vliegvelden (METAR en TAF).

De beschikbare stations zijn de gele en rode punten op de kaart.

Ga met uw muis naar het station om de naam te zien.

Klik dan om waarnemingen en weersverwachtingen te zien.

kaart wijzigen: klik op de groene knoppen met een zwart kruis om in te zoomen, op de groene knop met een streepje om uit te zoomen of op de groene pijlen voor aangrenzende kaarten.


METAR-TAF: